createdAt,value
2024-03-05T00:01:29.559Z,8.81
2024-03-05T00:03:57.254Z,8.80
2024-03-05T00:06:24.919Z,8.79
2024-03-05T00:08:52.570Z,8.78
2024-03-05T00:11:20.187Z,8.76
2024-03-05T00:13:48.016Z,8.73
2024-03-05T00:16:15.699Z,8.70
2024-03-05T00:18:43.240Z,8.68
2024-03-05T00:21:10.880Z,8.65
2024-03-05T00:23:38.438Z,8.64
2024-03-05T00:26:06.107Z,8.63
2024-03-05T00:28:34.123Z,8.62
2024-03-05T00:31:01.732Z,8.61
2024-03-05T00:33:29.289Z,8.61
2024-03-05T00:35:56.959Z,8.60
2024-03-05T00:38:29.080Z,8.59
2024-03-05T00:41:01.322Z,8.58
2024-03-05T00:43:29.204Z,8.56
2024-03-05T00:45:56.857Z,8.55
2024-03-05T00:48:24.653Z,8.54
2024-03-05T00:50:52.240Z,8.52
2024-03-05T00:53:20.213Z,8.51
2024-03-05T00:55:47.791Z,8.49
2024-03-05T00:58:15.348Z,8.47
2024-03-05T01:00:42.887Z,8.46
2024-03-05T01:03:10.459Z,8.46
2024-03-05T01:05:38.104Z,8.45
2024-03-05T01:08:05.687Z,8.42
2024-03-05T01:10:33.252Z,8.35
2024-03-05T01:13:00.898Z,8.28
2024-03-05T01:15:28.515Z,8.26
2024-03-05T01:17:56.649Z,8.24
2024-03-05T01:20:24.280Z,8.22
2024-03-05T01:22:51.899Z,8.20
2024-03-05T01:25:19.633Z,8.19
2024-03-05T01:27:47.272Z,8.17
2024-03-05T01:30:14.946Z,8.14
2024-03-05T01:32:42.637Z,8.13
2024-03-05T01:35:10.163Z,8.12
2024-03-05T01:37:37.819Z,8.10
2024-03-05T01:40:05.577Z,8.09
2024-03-05T01:42:33.442Z,8.08
2024-03-05T01:45:00.920Z,8.07
2024-03-05T01:47:28.688Z,8.05
2024-03-05T01:49:56.579Z,8.03
2024-03-05T01:52:24.354Z,8.01
2024-03-05T01:54:52.161Z,8.01
2024-03-05T01:57:19.930Z,8.00
2024-03-05T01:59:47.584Z,7.97
2024-03-05T02:02:15.358Z,7.96
2024-03-05T02:04:43.153Z,7.94
2024-03-05T02:07:11.093Z,7.93
2024-03-05T02:09:38.740Z,7.91
2024-03-05T02:12:06.453Z,7.89
2024-03-05T02:14:34.183Z,7.89
2024-03-05T02:17:01.981Z,7.88
2024-03-05T02:19:29.878Z,7.83
2024-03-05T02:21:57.665Z,7.74
2024-03-05T02:24:25.226Z,7.64
2024-03-05T02:26:52.902Z,7.58
2024-03-05T02:29:20.451Z,7.55
2024-03-05T02:31:48.212Z,7.52
2024-03-05T02:34:16.198Z,7.50
2024-03-05T02:36:43.735Z,7.45
2024-03-05T02:39:11.307Z,7.39
2024-03-05T02:41:38.964Z,7.36
2024-03-05T02:44:06.629Z,7.35
2024-03-05T02:46:34.311Z,7.34
2024-03-05T02:49:01.844Z,7.32
2024-03-05T02:51:29.500Z,7.30
2024-03-05T02:53:57.071Z,7.28
2024-03-05T02:56:24.630Z,7.24
2024-03-05T02:58:52.387Z,7.23
2024-03-05T03:01:20.212Z,7.23
2024-03-05T03:03:47.816Z,7.22
2024-03-05T03:06:15.491Z,7.21
2024-03-05T03:08:43.140Z,7.16
2024-03-05T03:11:11.094Z,7.08
2024-03-05T03:13:38.875Z,6.99
2024-03-05T03:16:06.430Z,6.91
2024-03-05T03:18:34.086Z,6.82
2024-03-05T03:21:01.653Z,6.77
2024-03-05T03:23:29.619Z,6.72
2024-03-05T03:25:57.182Z,6.69
2024-03-05T03:28:24.733Z,6.67
2024-03-05T03:30:52.398Z,6.67
2024-03-05T03:33:20.061Z,6.67
2024-03-05T03:35:47.521Z,6.67
2024-03-05T03:38:15.072Z,6.67
2024-03-05T03:40:42.656Z,6.66
2024-03-05T03:43:10.407Z,6.64
2024-03-05T03:45:38.076Z,6.61
2024-03-05T03:48:05.638Z,6.56
2024-03-05T03:50:33.579Z,6.50
2024-03-05T03:53:01.195Z,6.47
2024-03-05T03:55:28.941Z,6.48
2024-03-05T03:57:56.484Z,6.49
2024-03-05T04:00:24.125Z,6.52
2024-03-05T04:02:51.695Z,6.56
2024-03-05T04:05:19.383Z,6.59
2024-03-05T04:07:47.142Z,6.61
2024-03-05T04:10:14.971Z,6.64
2024-03-05T04:12:42.753Z,6.65
2024-03-05T04:15:10.905Z,6.66
2024-03-05T04:17:38.942Z,6.67
2024-03-05T04:20:06.868Z,6.66
2024-03-05T04:22:34.650Z,6.65
2024-03-05T04:25:02.406Z,6.65
2024-03-05T04:27:29.965Z,6.64
2024-03-05T04:29:57.628Z,6.63
2024-03-05T04:32:25.314Z,6.62
2024-03-05T04:34:52.970Z,6.61
2024-03-05T04:37:20.608Z,6.60
2024-03-05T04:39:48.565Z,6.59
2024-03-05T04:42:16.242Z,6.59
2024-03-05T04:44:43.792Z,6.58
2024-03-05T04:47:11.345Z,6.57
2024-03-05T04:49:39.030Z,6.57
2024-03-05T04:52:06.661Z,6.57
2024-03-05T04:54:34.326Z,6.57
2024-03-05T04:57:01.882Z,6.58
2024-03-05T04:59:29.567Z,6.59
2024-03-05T05:01:57.285Z,6.60
2024-03-05T05:04:25.095Z,6.60
2024-03-05T05:06:53.036Z,6.60
2024-03-05T05:09:20.733Z,6.58
2024-03-05T05:11:48.490Z,6.56
2024-03-05T05:14:16.134Z,6.56
2024-03-05T05:16:43.805Z,6.51
2024-03-05T05:19:11.452Z,6.48
2024-03-05T05:21:39.117Z,6.47
2024-03-05T05:24:06.673Z,6.46
2024-03-05T05:26:34.330Z,6.47
2024-03-05T05:29:02.037Z,6.48
2024-03-05T05:31:29.896Z,6.49
2024-03-05T05:33:57.826Z,6.51
2024-03-05T05:36:25.497Z,6.51
2024-03-05T05:38:53.053Z,6.51
2024-03-05T05:41:20.716Z,6.50
2024-03-05T05:43:48.310Z,6.48
2024-03-05T05:46:15.981Z,6.48
2024-03-05T05:48:43.831Z,6.49
2024-03-05T05:51:11.602Z,6.49
2024-03-05T05:53:39.420Z,6.41
2024-03-05T05:56:07.052Z,6.31
2024-03-05T05:58:34.793Z,6.25
2024-03-05T06:01:02.438Z,6.21
2024-03-05T06:03:29.978Z,6.20
2024-03-05T06:05:57.532Z,6.21
2024-03-05T06:08:25.199Z,6.23
2024-03-05T06:10:52.786Z,6.22
2024-03-05T06:13:20.559Z,6.20
2024-03-05T06:15:48.190Z,6.19
2024-03-05T06:18:15.879Z,6.21
2024-03-05T06:20:43.833Z,6.26
2024-03-05T06:23:11.944Z,6.31
2024-03-05T06:25:39.659Z,6.36
2024-03-05T06:28:07.312Z,6.40
2024-03-05T06:30:34.864Z,6.44
2024-03-05T06:33:02.578Z,6.48
2024-03-05T06:35:30.392Z,6.53
2024-03-05T06:37:58.701Z,6.56
2024-03-05T06:40:26.765Z,6.59
2024-03-05T06:42:54.874Z,6.61
2024-03-05T06:45:22.683Z,6.61
2024-03-05T06:47:54.324Z,6.61
2024-03-05T06:50:22.306Z,6.54
2024-03-05T06:52:49.884Z,6.49
2024-03-05T06:55:17.536Z,6.47
2024-03-05T06:57:45.080Z,6.50
2024-03-05T07:00:12.639Z,6.53
2024-03-05T07:02:40.303Z,6.51
2024-03-05T07:05:08.111Z,6.49
2024-03-05T07:07:35.801Z,6.48
2024-03-05T07:10:03.493Z,6.48
2024-03-05T07:12:31.488Z,6.51
2024-03-05T07:14:59.129Z,6.54
2024-03-05T07:17:26.682Z,6.57
2024-03-05T07:19:54.595Z,6.58
2024-03-05T07:22:22.248Z,6.59
2024-03-05T07:24:49.979Z,6.59
2024-03-05T07:27:17.552Z,6.60
2024-03-05T07:29:45.201Z,6.63
2024-03-05T07:32:12.784Z,6.65
2024-03-05T07:34:40.497Z,6.66
2024-03-05T07:37:08.490Z,6.68
2024-03-05T07:39:36.051Z,6.68
2024-03-05T07:42:03.816Z,6.69
2024-03-05T07:44:31.437Z,6.69
2024-03-05T07:46:59.145Z,6.71
2024-03-05T07:49:26.696Z,6.74
2024-03-05T07:51:54.257Z,6.79
2024-03-05T07:54:21.918Z,6.83
2024-03-05T07:56:49.576Z,6.86
2024-03-05T07:59:17.177Z,6.89
2024-03-05T08:01:45.124Z,6.91
2024-03-05T08:04:12.870Z,6.93
2024-03-05T08:06:40.535Z,6.95
2024-03-05T08:09:08.153Z,6.95
2024-03-05T08:11:35.903Z,6.96
2024-03-05T08:14:03.756Z,6.97
2024-03-05T08:16:31.716Z,6.99
2024-03-05T08:18:59.450Z,7.00
2024-03-05T08:21:27.118Z,7.02
2024-03-05T08:23:54.784Z,7.05
2024-03-05T08:26:22.364Z,7.07
2024-03-05T08:28:50.415Z,7.06
2024-03-05T08:31:18.096Z,7.07
2024-03-05T08:33:45.884Z,7.07
2024-03-05T08:36:13.484Z,7.06
2024-03-05T08:38:41.156Z,7.06
2024-03-05T08:41:08.955Z,7.05
2024-03-05T08:43:36.719Z,7.02
2024-03-05T08:46:04.352Z,6.99
2024-03-05T08:48:31.895Z,6.98
2024-03-05T08:50:59.576Z,6.97
2024-03-05T08:53:27.534Z,6.99
2024-03-05T08:55:55.169Z,6.99
2024-03-05T08:58:22.992Z,6.99
2024-03-05T09:00:50.685Z,6.96
2024-03-05T09:03:18.489Z,6.96
2024-03-05T09:05:48.145Z,6.98
2024-03-05T09:08:16.268Z,6.97
2024-03-05T09:10:43.881Z,6.97
2024-03-05T09:13:11.489Z,6.99
2024-03-05T09:15:42.849Z,7.01
2024-03-05T09:18:12.093Z,7.01
2024-03-05T09:20:39.701Z,7.00
2024-03-05T09:23:07.352Z,6.99
2024-03-05T09:25:35.028Z,6.99
2024-03-05T09:28:02.681Z,6.99
2024-03-05T09:30:30.237Z,7.00
2024-03-05T09:32:57.900Z,7.01
2024-03-05T09:35:26.093Z,7.01
2024-03-05T09:37:53.930Z,7.00
2024-03-05T09:40:21.633Z,7.00
2024-03-05T09:42:49.675Z,7.01
2024-03-05T09:45:17.721Z,7.02
2024-03-05T09:47:46.206Z,7.03
2024-03-05T09:50:14.270Z,7.03
2024-03-05T09:52:42.261Z,7.03
2024-03-05T09:55:10.100Z,7.04
2024-03-05T09:57:37.795Z,7.06
2024-03-05T10:00:05.498Z,7.08
2024-03-05T10:02:33.257Z,7.12
2024-03-05T10:05:01.082Z,7.15
2024-03-05T10:07:29.187Z,7.16
2024-03-05T10:09:56.827Z,7.19
2024-03-05T10:12:24.489Z,7.23
2024-03-05T10:14:54.748Z,7.20
2024-03-05T10:17:22.573Z,7.19
2024-03-05T10:19:50.152Z,7.26
2024-03-05T10:22:17.696Z,7.40
2024-03-05T10:24:45.246Z,7.51
2024-03-05T10:27:12.958Z,7.64
2024-03-05T10:29:40.773Z,7.76
2024-03-05T10:32:08.377Z,7.93
2024-03-05T10:34:36.443Z,8.08
2024-03-05T10:37:04.072Z,8.18
2024-03-05T10:39:31.620Z,8.22
2024-03-05T10:41:59.184Z,8.25
2024-03-05T10:44:26.844Z,8.26
2024-03-05T10:46:54.433Z,8.23
2024-03-05T10:49:22.113Z,8.20
2024-03-05T10:51:49.845Z,8.21
2024-03-05T10:54:17.391Z,8.27
2024-03-05T10:56:45.622Z,8.28
2024-03-05T10:59:13.438Z,8.27
2024-03-05T11:01:41.869Z,8.26
2024-03-05T11:04:10.285Z,8.23
2024-03-05T11:06:37.849Z,8.20
2024-03-05T11:09:05.616Z,8.17
2024-03-05T11:11:33.412Z,8.17
2024-03-05T11:14:01.182Z,8.16
2024-03-05T11:16:30.796Z,8.18
2024-03-05T11:18:58.729Z,8.15
2024-03-05T11:21:26.394Z,8.09
2024-03-05T11:23:54.417Z,8.00
2024-03-05T11:26:23.081Z,7.89
2024-03-05T11:28:50.928Z,7.84
2024-03-05T11:31:20.580Z,7.77
2024-03-05T11:33:49.712Z,7.70
2024-03-05T11:36:17.363Z,7.66
2024-03-05T11:38:45.025Z,7.65
2024-03-05T11:41:12.753Z,7.66
2024-03-05T11:43:40.376Z,7.67
2024-03-05T11:46:08.010Z,7.69
2024-03-05T11:48:35.887Z,7.71
2024-03-05T11:51:03.742Z,7.73
2024-03-05T11:53:31.402Z,7.76
2024-03-05T11:55:59.125Z,7.79
2024-03-05T11:58:27.142Z,7.77
2024-03-05T12:00:55.105Z,7.69
2024-03-05T12:03:22.674Z,7.70
2024-03-05T12:05:50.444Z,7.77
2024-03-05T12:08:18.105Z,7.89
2024-03-05T12:10:45.724Z,8.02
2024-03-05T12:13:13.824Z,8.15
2024-03-05T12:15:41.589Z,8.27
2024-03-05T12:18:09.336Z,8.39
2024-03-05T12:20:37.022Z,8.52
2024-03-05T12:23:04.853Z,8.75
2024-03-05T12:25:32.565Z,9.03
2024-03-05T12:28:00.303Z,9.19
2024-03-05T12:30:27.863Z,9.20
2024-03-05T12:32:55.752Z,9.19
2024-03-05T12:35:23.499Z,9.11
2024-03-05T12:37:51.497Z,9.03
2024-03-05T12:40:19.239Z,8.95
2024-03-05T12:42:46.891Z,8.91
2024-03-05T12:45:14.451Z,8.89
2024-03-05T12:47:42.137Z,8.86
2024-03-05T12:50:10.036Z,8.90
2024-03-05T12:52:38.067Z,8.92
2024-03-05T12:55:05.798Z,8.92
2024-03-05T12:57:33.584Z,8.92
2024-03-05T13:00:01.132Z,8.87
2024-03-05T13:02:29.258Z,8.83
2024-03-05T13:04:58.936Z,8.82
2024-03-05T13:07:27.680Z,8.84
2024-03-05T13:09:55.688Z,8.78
2024-03-05T13:12:23.348Z,8.71
2024-03-05T13:14:50.912Z,8.72
2024-03-05T13:17:18.773Z,8.79
2024-03-05T13:19:46.684Z,8.88
2024-03-05T13:22:14.875Z,8.89
2024-03-05T13:24:42.875Z,8.95
2024-03-05T13:27:10.428Z,9.07
2024-03-05T13:29:38.398Z,9.18
2024-03-05T13:32:06.159Z,9.25
2024-03-05T13:34:34.042Z,9.28
2024-03-05T13:37:01.649Z,9.30
2024-03-05T13:39:29.350Z,9.29
2024-03-05T13:41:56.997Z,9.27
2024-03-05T13:44:25.081Z,9.25
2024-03-05T13:46:53.374Z,9.21
2024-03-05T13:49:21.769Z,9.16
2024-03-05T13:51:50.020Z,9.03
2024-03-05T13:54:17.681Z,8.83
2024-03-05T13:56:45.259Z,8.67
2024-03-05T13:59:13.113Z,8.57
2024-03-05T14:01:41.013Z,8.53
2024-03-05T14:04:08.754Z,8.51
2024-03-05T14:06:36.403Z,8.49
2024-03-05T14:09:04.060Z,8.49
2024-03-05T14:11:32.253Z,8.50
2024-03-05T14:14:00.040Z,8.52
2024-03-05T14:16:28.111Z,8.50
2024-03-05T14:18:55.728Z,8.51
2024-03-05T14:21:23.389Z,8.54
2024-03-05T14:23:51.060Z,8.58
2024-03-05T14:26:18.723Z,8.61
2024-03-05T14:28:46.441Z,8.70
2024-03-05T14:31:14.138Z,8.84
2024-03-05T14:33:41.718Z,9.10
2024-03-05T14:36:11.209Z,10.11
2024-03-05T14:38:41.015Z,11.98
2024-03-05T14:41:09.011Z,13.69
2024-03-05T14:43:36.670Z,15.10
2024-03-05T14:46:04.309Z,16.10
2024-03-05T14:48:31.981Z,16.59
2024-03-05T14:50:59.629Z,16.38
2024-03-05T14:53:27.296Z,15.82
2024-03-05T14:55:55.231Z,15.15
2024-03-05T14:58:23.220Z,14.52
2024-03-05T15:00:50.901Z,13.92
2024-03-05T15:03:18.557Z,13.38
2024-03-05T15:05:46.817Z,12.99
2024-03-05T15:08:14.677Z,12.70
2024-03-05T15:10:42.368Z,12.59
2024-03-05T15:13:10.022Z,12.45
2024-03-05T15:15:37.793Z,12.21
2024-03-05T15:18:05.470Z,11.88
2024-03-05T15:20:33.105Z,11.53
2024-03-05T15:23:00.866Z,11.19
2024-03-05T15:25:28.696Z,10.84
2024-03-05T15:28:02.106Z,10.52
2024-03-05T15:30:33.609Z,10.21
2024-03-05T15:33:02.490Z,9.93
2024-03-05T15:35:30.574Z,9.71
2024-03-05T15:37:58.330Z,9.51
2024-03-05T15:40:25.897Z,9.35
2024-03-05T15:42:53.676Z,9.19
2024-03-05T15:45:21.286Z,9.08
2024-03-05T15:47:49.105Z,8.98
2024-03-05T15:50:17.007Z,8.89
2024-03-05T15:52:44.980Z,8.80
2024-03-05T15:55:12.781Z,8.71
2024-03-05T15:57:40.318Z,8.61
2024-03-05T16:00:08.002Z,8.48
2024-03-05T16:02:35.705Z,8.37
2024-03-05T16:05:17.555Z,8.26
2024-03-05T16:07:50.998Z,8.16
2024-03-05T16:10:18.800Z,8.08
2024-03-05T16:12:46.369Z,7.98
2024-03-05T16:15:14.064Z,7.87
2024-03-05T16:17:41.820Z,7.76
2024-03-05T16:20:09.822Z,7.64
2024-03-05T16:22:37.509Z,7.54
2024-03-05T16:25:05.277Z,7.43
2024-03-05T16:27:32.950Z,7.34
2024-03-05T16:30:00.533Z,7.24
2024-03-05T16:32:28.248Z,7.14
2024-03-05T16:34:56.048Z,7.03
2024-03-05T16:37:23.716Z,6.96
2024-03-05T16:39:51.473Z,6.86
2024-03-05T16:42:19.126Z,6.74
2024-03-05T16:44:47.080Z,6.63
2024-03-05T16:47:14.797Z,6.52
2024-03-05T16:49:42.564Z,6.42
2024-03-05T16:52:10.378Z,6.30
2024-03-05T16:54:38.059Z,6.18
2024-03-05T16:57:05.506Z,6.08
2024-03-05T16:59:33.162Z,5.98
2024-03-05T17:02:00.777Z,5.85
2024-03-05T17:04:28.622Z,5.73
2024-03-05T17:06:56.417Z,5.61
2024-03-05T17:09:24.105Z,5.47
2024-03-05T17:11:52.118Z,5.32
2024-03-05T17:14:19.945Z,5.18
2024-03-05T17:16:47.716Z,5.11
2024-03-05T17:19:15.575Z,5.07
2024-03-05T17:21:43.147Z,5.03
2024-03-05T17:24:10.816Z,5.00
2024-03-05T17:26:38.355Z,4.97
2024-03-05T17:29:06.038Z,4.96
2024-03-05T17:31:33.832Z,4.97
2024-03-05T17:34:01.552Z,4.99
2024-03-05T17:36:29.514Z,5.01
2024-03-05T17:38:57.075Z,5.04
2024-03-05T17:41:24.911Z,5.06
2024-03-05T17:43:52.616Z,5.06
2024-03-05T17:46:20.282Z,5.04
2024-03-05T17:48:47.838Z,5.03
2024-03-05T17:51:15.489Z,5.03
2024-03-05T17:53:43.044Z,5.03
2024-03-05T17:56:10.777Z,5.05
2024-03-05T17:58:38.587Z,5.06
2024-03-05T18:01:06.566Z,5.07
2024-03-05T18:03:34.201Z,5.07
2024-03-05T18:06:01.870Z,5.09
2024-03-05T18:08:29.519Z,5.11
2024-03-05T18:10:57.190Z,5.12
2024-03-05T18:13:24.983Z,5.13
2024-03-05T18:15:52.650Z,5.15
2024-03-05T18:18:20.371Z,5.17
2024-03-05T18:20:47.995Z,5.19
2024-03-05T18:23:15.807Z,5.22
2024-03-05T18:25:43.658Z,5.23
2024-03-05T18:28:11.737Z,5.23
2024-03-05T18:30:39.759Z,5.22
2024-03-05T18:33:09.090Z,5.19
2024-03-05T18:35:37.840Z,5.16
2024-03-05T18:40:36.278Z,5.12
2024-03-05T18:43:03.968Z,5.10
2024-03-05T18:45:31.620Z,5.07
2024-03-05T18:48:05.577Z,5.04
2024-03-05T18:50:38.960Z,5.01
2024-03-05T18:53:07.776Z,4.97
2024-03-05T18:55:35.719Z,4.91
2024-03-05T18:58:03.332Z,4.85
2024-03-05T19:00:31.018Z,4.78
2024-03-05T19:02:58.560Z,4.72
2024-03-05T19:05:26.229Z,4.65
2024-03-05T19:07:53.848Z,4.59
2024-03-05T19:10:21.660Z,4.54
2024-03-05T19:12:49.214Z,4.49
2024-03-05T19:15:17.171Z,4.45
2024-03-05T19:17:44.971Z,4.40
2024-03-05T19:20:12.611Z,4.35
2024-03-05T19:22:40.475Z,4.31
2024-03-05T19:25:08.234Z,4.29
2024-03-05T19:27:35.790Z,4.27
2024-03-05T19:30:03.446Z,4.27
2024-03-05T19:32:31.018Z,4.28
2024-03-05T19:34:58.845Z,4.30
2024-03-05T19:37:26.711Z,4.33
2024-03-05T19:39:54.805Z,4.36
2024-03-05T19:42:22.480Z,4.38
2024-03-05T19:44:50.055Z,4.38
2024-03-05T19:47:17.715Z,4.38
2024-03-05T19:49:45.485Z,4.37
2024-03-05T19:52:13.132Z,4.35
2024-03-05T19:54:40.702Z,4.35
2024-03-05T19:57:08.152Z,4.35
2024-03-05T19:59:35.803Z,4.36
2024-03-05T20:02:03.497Z,4.38
2024-03-05T20:04:31.137Z,4.36
2024-03-05T20:06:59.395Z,4.34
2024-03-05T20:09:27.262Z,4.32
2024-03-05T20:11:55.009Z,4.28
2024-03-05T20:14:22.700Z,4.25
2024-03-05T20:16:50.419Z,4.22
2024-03-05T20:19:18.112Z,4.21
2024-03-05T20:21:45.768Z,4.19
2024-03-05T20:24:13.342Z,4.19
2024-03-05T20:26:40.890Z,4.19
2024-03-05T20:29:08.563Z,4.18
2024-03-05T20:31:36.343Z,4.18
2024-03-05T20:34:04.281Z,4.16
2024-03-05T20:36:31.847Z,4.14
2024-03-05T20:38:59.510Z,4.13
2024-03-05T20:41:27.175Z,4.13
2024-03-05T20:43:54.860Z,4.13
2024-03-05T20:46:22.512Z,4.13
2024-03-05T20:48:50.048Z,4.13
2024-03-05T20:51:17.617Z,4.12
2024-03-05T20:53:45.172Z,4.11
2024-03-05T20:56:12.913Z,4.11
2024-03-05T20:58:40.646Z,4.10
2024-03-05T21:01:08.276Z,4.10
2024-03-05T21:03:35.920Z,4.09
2024-03-05T21:06:03.479Z,4.09
2024-03-05T21:08:31.048Z,4.09
2024-03-05T21:10:58.722Z,4.09
2024-03-05T21:13:26.777Z,4.08
2024-03-05T21:15:54.542Z,4.08
2024-03-05T21:18:22.117Z,4.07
2024-03-05T21:20:49.777Z,4.08
2024-03-05T21:23:18.736Z,4.07
2024-03-05T21:26:02.862Z,4.09
2024-03-05T21:28:34.589Z,4.11
2024-03-05T21:31:02.426Z,4.14
2024-03-05T21:33:29.989Z,4.15
2024-03-05T21:35:57.449Z,4.17
2024-03-05T21:38:24.991Z,4.17
2024-03-05T21:40:52.684Z,4.17
2024-03-05T21:43:20.314Z,4.18
2024-03-05T21:45:47.975Z,4.20
2024-03-05T21:48:16.012Z,4.22
2024-03-05T21:50:43.707Z,4.25
2024-03-05T21:53:11.313Z,4.24
2024-03-05T21:55:38.996Z,4.22
2024-03-05T21:58:06.801Z,4.21
2024-03-05T22:00:34.400Z,4.21
2024-03-05T22:03:02.132Z,4.22
2024-03-05T22:05:29.696Z,4.23
2024-03-05T22:07:57.303Z,4.25
2024-03-05T22:10:25.102Z,4.27
2024-03-05T22:12:53.075Z,4.30
2024-03-05T22:15:20.644Z,4.32
2024-03-05T22:17:48.217Z,4.34
2024-03-05T22:20:15.943Z,4.36
2024-03-05T22:22:43.720Z,4.36
2024-03-05T22:25:11.285Z,4.36
2024-03-05T22:27:53.178Z,4.35
2024-03-05T22:30:21.769Z,4.37
2024-03-05T22:32:49.443Z,4.39
2024-03-05T22:35:17.166Z,4.39
2024-03-05T22:37:46.489Z,4.39
2024-03-05T22:40:15.064Z,4.38
2024-03-05T22:42:42.738Z,4.36
2024-03-05T22:45:10.345Z,4.35
2024-03-05T22:47:38.238Z,4.34
2024-03-05T22:50:05.974Z,4.35
2024-03-05T22:52:33.725Z,4.35
2024-03-05T22:55:01.360Z,4.37
2024-03-05T22:57:29.022Z,4.37
2024-03-05T22:59:56.564Z,4.37
2024-03-05T23:02:24.647Z,4.37
2024-03-05T23:04:52.335Z,4.36
2024-03-05T23:07:20.063Z,4.34
2024-03-05T23:09:47.622Z,4.31
2024-03-05T23:12:15.294Z,4.29
2024-03-05T23:14:42.945Z,4.27
2024-03-05T23:17:10.651Z,4.27
2024-03-05T23:19:38.499Z,4.28
2024-03-05T23:22:06.242Z,4.29
2024-03-05T23:24:33.800Z,4.29
2024-03-05T23:27:01.363Z,4.29
2024-03-05T23:29:29.538Z,4.28
2024-03-05T23:31:57.278Z,4.26
2024-03-05T23:34:24.953Z,4.26
2024-03-05T23:36:52.511Z,4.26
2024-03-05T23:39:20.179Z,4.27
2024-03-05T23:41:47.809Z,4.28
2024-03-05T23:44:15.616Z,4.28
2024-03-05T23:46:43.199Z,4.27
2024-03-05T23:49:11.233Z,4.28
2024-03-05T23:51:39.209Z,4.27
2024-03-05T23:54:07.177Z,4.26
2024-03-05T23:56:34.749Z,4.26
2024-03-05T23:59:02.438Z,4.25
